createdAt,value
2022-11-30T00:03:02.722Z,13.79
2022-11-30T00:06:07.360Z,13.84
2022-11-30T00:09:09.730Z,13.75
2022-11-30T00:12:11.928Z,13.89
2022-11-30T00:15:17.155Z,14.00
2022-11-30T00:18:19.125Z,13.99
2022-11-30T00:21:21.376Z,13.89
2022-11-30T00:24:24.543Z,13.98
2022-11-30T00:27:28.217Z,13.88
2022-11-30T00:30:30.899Z,13.78
2022-11-30T00:33:35.599Z,13.89
2022-11-30T00:36:37.815Z,13.68
2022-11-30T00:39:39.945Z,13.63
2022-11-30T00:42:42.955Z,13.65
2022-11-30T00:45:45.166Z,13.58
2022-11-30T00:48:47.435Z,13.53
2022-11-30T00:51:49.639Z,13.48
2022-11-30T00:54:51.778Z,13.51
2022-11-30T00:57:54.146Z,13.54
2022-11-30T01:00:56.357Z,13.74
2022-11-30T01:03:58.773Z,13.77
2022-11-30T01:07:01.469Z,13.71
2022-11-30T01:10:04.092Z,13.70
2022-11-30T01:13:06.220Z,13.67
2022-11-30T01:16:10.564Z,13.75
2022-11-30T01:19:12.772Z,13.69
2022-11-30T01:22:14.817Z,13.71
2022-11-30T01:25:16.887Z,13.62
2022-11-30T01:28:19.267Z,13.48
2022-11-30T01:31:23.759Z,13.59
2022-11-30T01:34:25.941Z,13.52
2022-11-30T01:37:30.631Z,13.52
2022-11-30T01:40:32.644Z,13.55
2022-11-30T01:43:49.954Z,13.50
2022-11-30T01:47:05.636Z,13.51
2022-11-30T01:50:15.539Z,13.56
2022-11-30T01:53:17.573Z,13.63
2022-11-30T01:56:19.744Z,13.70
2022-11-30T01:59:24.152Z,13.44
2022-11-30T02:02:40.503Z,13.49
2022-11-30T02:05:44.132Z,13.45
2022-11-30T02:08:46.535Z,13.44
2022-11-30T02:11:49.752Z,13.30
2022-11-30T02:14:57.877Z,13.38
2022-11-30T02:18:12.235Z,13.13
2022-11-30T02:21:15.612Z,13.17
2022-11-30T02:24:54.730Z,13.20
2022-11-30T02:28:03.011Z,13.14
2022-11-30T02:31:08.955Z,13.11
2022-11-30T02:34:15.733Z,13.18
2022-11-30T02:37:19.478Z,13.31
2022-11-30T02:40:21.659Z,13.22
2022-11-30T02:43:26.691Z,13.37
2022-11-30T02:46:36.310Z,13.31
2022-11-30T02:50:07.644Z,13.34
2022-11-30T02:53:14.817Z,13.24
2022-11-30T02:56:17.963Z,13.26
2022-11-30T02:59:20.997Z,13.03
2022-11-30T03:02:23.122Z,12.96
2022-11-30T03:05:26.171Z,12.96
2022-11-30T03:08:28.276Z,12.93
2022-11-30T03:11:31.413Z,13.10
2022-11-30T03:14:33.404Z,12.88
2022-11-30T03:17:36.388Z,13.07
2022-11-30T03:20:43.838Z,13.09
2022-11-30T03:23:46.141Z,13.16
2022-11-30T03:26:48.191Z,13.12
2022-11-30T03:29:50.239Z,13.13
2022-11-30T03:32:52.855Z,13.08
2022-11-30T03:36:09.437Z,13.11
2022-11-30T03:39:11.594Z,12.93
2022-11-30T03:42:13.625Z,12.91
2022-11-30T03:45:15.819Z,12.68
2022-11-30T03:48:17.831Z,12.85
2022-11-30T03:51:20.171Z,12.79
2022-11-30T03:54:22.449Z,12.85
2022-11-30T03:57:27.323Z,12.84
2022-11-30T04:00:29.363Z,12.80
2022-11-30T04:03:31.487Z,12.83
2022-11-30T04:06:34.543Z,12.80
2022-11-30T04:09:36.476Z,12.88
2022-11-30T04:12:38.561Z,12.87
2022-11-30T04:15:40.670Z,12.78
2022-11-30T04:18:42.707Z,12.98
2022-11-30T04:21:44.847Z,13.03
2022-11-30T04:24:47.179Z,12.88
2022-11-30T04:27:49.439Z,12.92
2022-11-30T04:30:52.403Z,12.88
2022-11-30T04:33:54.683Z,12.84
2022-11-30T04:37:00.226Z,12.81
2022-11-30T04:40:02.907Z,12.85
2022-11-30T04:43:07.155Z,12.80
2022-11-30T04:46:09.295Z,12.87
2022-11-30T04:49:11.420Z,12.86
2022-11-30T04:52:13.697Z,12.85
2022-11-30T04:55:19.439Z,12.89
2022-11-30T04:58:21.708Z,13.05
2022-11-30T05:01:23.868Z,13.01
2022-11-30T05:04:26.161Z,13.01
2022-11-30T05:07:28.277Z,13.33
2022-11-30T05:10:32.175Z,14.94
2022-11-30T05:13:34.984Z,16.06
2022-11-30T05:16:37.022Z,17.03
2022-11-30T05:19:40.090Z,17.39
2022-11-30T05:22:42.185Z,16.94
2022-11-30T05:25:44.503Z,18.39
2022-11-30T05:28:46.524Z,18.82
2022-11-30T05:31:48.797Z,18.63
2022-11-30T05:34:52.016Z,19.30
2022-11-30T05:37:54.724Z,20.04
2022-11-30T05:41:01.719Z,18.96
2022-11-30T05:44:05.251Z,19.39
2022-11-30T05:47:07.409Z,19.61
2022-11-30T05:50:09.830Z,19.09
2022-11-30T05:53:11.924Z,19.35
2022-11-30T05:56:17.578Z,19.77
2022-11-30T05:59:19.577Z,18.93
2022-11-30T06:02:27.754Z,18.78
2022-11-30T06:05:30.401Z,18.41
2022-11-30T06:08:32.500Z,17.97
2022-11-30T06:11:35.744Z,17.73
2022-11-30T06:14:38.053Z,17.46
2022-11-30T06:17:40.241Z,17.42
2022-11-30T06:20:43.974Z,17.08
2022-11-30T06:23:46.151Z,17.23
2022-11-30T06:26:48.599Z,17.41
2022-11-30T06:29:51.301Z,17.57
2022-11-30T06:32:53.945Z,18.69
2022-11-30T06:35:56.627Z,19.76
2022-11-30T06:38:59.085Z,20.70
2022-11-30T06:42:01.255Z,21.18
2022-11-30T06:45:04.244Z,21.02
2022-11-30T06:48:06.447Z,19.61
2022-11-30T06:51:09.638Z,18.53
2022-11-30T06:54:11.932Z,18.59
2022-11-30T06:57:14.253Z,18.62
2022-11-30T07:00:17.120Z,18.64
2022-11-30T07:03:19.336Z,21.16
2022-11-30T07:06:21.380Z,23.66
2022-11-30T07:09:23.454Z,24.82
2022-11-30T07:12:26.284Z,24.83
2022-11-30T07:15:28.285Z,22.79
2022-11-30T07:18:32.850Z,20.97
2022-11-30T07:21:35.153Z,21.04
2022-11-30T07:25:06.592Z,20.01
2022-11-30T07:28:09.122Z,18.96
2022-11-30T07:31:22.349Z,18.46
2022-11-30T07:34:26.217Z,18.29
2022-11-30T07:37:28.462Z,18.31
2022-11-30T07:40:30.675Z,19.16
2022-11-30T07:43:33.546Z,19.48
2022-11-30T07:46:40.797Z,19.81
2022-11-30T07:49:43.642Z,19.08
2022-11-30T07:52:45.630Z,19.14
2022-11-30T07:55:49.672Z,19.60
2022-11-30T07:59:00.268Z,20.25
2022-11-30T08:02:03.047Z,20.18
2022-11-30T08:05:05.592Z,19.57
2022-11-30T08:08:07.929Z,19.42
2022-11-30T08:11:12.514Z,18.98
2022-11-30T08:14:14.808Z,18.60
2022-11-30T08:17:16.986Z,19.82
2022-11-30T08:20:21.337Z,19.69
2022-11-30T08:23:25.943Z,19.10
2022-11-30T08:26:30.610Z,19.79
2022-11-30T08:29:38.087Z,19.33
2022-11-30T08:32:43.191Z,18.30
2022-11-30T08:35:48.742Z,18.14
2022-11-30T08:38:52.440Z,18.10
2022-11-30T08:41:58.855Z,17.82
2022-11-30T08:45:01.217Z,17.76
2022-11-30T08:48:03.534Z,17.71
2022-11-30T08:51:08.974Z,17.63
2022-11-30T08:54:11.274Z,17.70
2022-11-30T08:57:16.115Z,17.67
2022-11-30T09:00:20.320Z,17.59
2022-11-30T09:03:22.370Z,17.36
2022-11-30T09:06:30.939Z,17.26
2022-11-30T09:13:27.732Z,17.00
2022-11-30T09:16:30.008Z,17.20
2022-11-30T09:20:54.841Z,17.60
2022-11-30T09:23:57.789Z,17.71
2022-11-30T09:27:05.276Z,16.82
2022-11-30T09:30:07.975Z,16.19
2022-11-30T09:33:10.134Z,15.96
2022-11-30T09:36:15.242Z,15.86
2022-11-30T09:39:17.288Z,15.92
2022-11-30T09:42:27.082Z,15.60
2022-11-30T09:45:31.913Z,16.12
2022-11-30T09:48:43.282Z,16.43
2022-11-30T09:51:49.918Z,16.62
2022-11-30T09:54:52.078Z,16.90
2022-11-30T09:58:02.360Z,16.90
2022-11-30T10:01:10.114Z,17.01
2022-11-30T10:04:23.429Z,16.87
2022-11-30T10:07:49.599Z,16.93
2022-11-30T10:11:00.995Z,16.85
2022-11-30T10:14:14.032Z,16.88
2022-11-30T10:17:54.826Z,16.92
2022-11-30T10:21:14.410Z,16.91
2022-11-30T10:24:44.191Z,16.94
2022-11-30T10:27:46.153Z,16.83
2022-11-30T10:30:49.500Z,16.95
2022-11-30T10:33:55.569Z,17.64
2022-11-30T10:37:14.342Z,17.90
2022-11-30T10:40:29.083Z,17.86
2022-11-30T10:43:43.689Z,17.84
2022-11-30T10:46:59.209Z,17.75
2022-11-30T10:50:01.295Z,17.64
2022-11-30T10:53:03.520Z,17.58
2022-11-30T10:56:08.369Z,17.48
2022-11-30T10:59:53.404Z,17.45
2022-11-30T11:02:55.629Z,17.22
2022-11-30T11:06:18.174Z,17.28
2022-11-30T11:09:37.261Z,17.15
2022-11-30T11:12:39.611Z,17.02
2022-11-30T11:15:57.870Z,16.88
2022-11-30T11:18:59.941Z,16.86
2022-11-30T11:22:14.947Z,16.86
2022-11-30T11:25:22.806Z,16.75
2022-11-30T11:28:25.976Z,16.76
2022-11-30T11:31:38.927Z,16.81
2022-11-30T11:34:41.114Z,16.79
2022-11-30T11:37:51.724Z,16.74
2022-11-30T11:41:07.270Z,16.62
2022-11-30T11:44:09.195Z,16.64
2022-11-30T11:47:24.899Z,16.55
2022-11-30T11:54:02.904Z,16.26
2022-11-30T11:57:19.052Z,16.34
2022-11-30T12:00:25.042Z,16.19
2022-11-30T12:03:53.885Z,16.01
2022-11-30T12:06:58.979Z,15.94
2022-11-30T12:13:49.398Z,15.86
2022-11-30T12:17:34.921Z,15.80
2022-11-30T12:20:50.282Z,15.79
2022-11-30T12:24:10.343Z,15.72
2022-11-30T12:27:50.483Z,15.85
2022-11-30T12:31:15.054Z,15.80
2022-11-30T12:34:26.829Z,15.72
2022-11-30T12:37:31.529Z,15.81
2022-11-30T12:40:38.683Z,15.63
2022-11-30T12:44:13.303Z,15.79
2022-11-30T12:47:37.195Z,15.83
2022-11-30T12:50:59.768Z,15.87
2022-11-30T12:54:14.746Z,15.83
2022-11-30T12:57:43.749Z,15.75
2022-11-30T13:01:30.477Z,15.76
2022-11-30T13:04:44.191Z,15.74
2022-11-30T13:07:54.810Z,15.65
2022-11-30T13:11:01.700Z,15.68
2022-11-30T13:14:10.064Z,15.87
2022-11-30T13:17:19.609Z,15.93
2022-11-30T13:20:45.367Z,15.74
2022-11-30T13:23:53.019Z,15.85
2022-11-30T13:27:18.385Z,15.59
2022-11-30T13:30:31.965Z,15.57
2022-11-30T13:33:33.911Z,15.28
2022-11-30T13:36:44.841Z,14.99
2022-11-30T13:39:50.579Z,15.14
2022-11-30T13:42:56.336Z,15.13
2022-11-30T13:46:05.938Z,14.98
2022-11-30T13:49:22.279Z,15.07
2022-11-30T13:52:58.552Z,15.02
2022-11-30T13:56:07.835Z,14.82
2022-11-30T13:59:24.865Z,14.78
2022-11-30T14:05:57.627Z,14.75
2022-11-30T14:08:59.758Z,14.54
2022-11-30T14:12:34.734Z,14.73
2022-11-30T14:15:39.477Z,14.57
2022-11-30T14:18:46.935Z,14.51
2022-11-30T14:21:49.419Z,14.49
2022-11-30T14:24:52.904Z,14.54
2022-11-30T14:27:57.099Z,14.50
2022-11-30T14:31:00.246Z,14.34
2022-11-30T14:34:20.577Z,14.16
2022-11-30T14:37:23.587Z,14.17
2022-11-30T14:40:29.901Z,14.21
2022-11-30T14:43:32.086Z,14.21
2022-11-30T14:46:44.605Z,14.17
2022-11-30T14:49:52.186Z,14.12
2022-11-30T14:53:26.594Z,14.36
2022-11-30T14:56:41.055Z,14.21
2022-11-30T15:00:03.876Z,14.36
2022-11-30T15:03:18.767Z,14.41
2022-11-30T15:06:27.137Z,14.28
2022-11-30T15:09:32.647Z,14.17
2022-11-30T15:12:38.230Z,14.20
2022-11-30T15:15:50.615Z,13.93
2022-11-30T15:18:54.727Z,14.13
2022-11-30T15:21:58.465Z,14.14
2022-11-30T15:25:02.057Z,14.07
2022-11-30T15:28:07.522Z,14.02
2022-11-30T15:31:15.974Z,14.26
2022-11-30T15:34:20.207Z,14.24
2022-11-30T15:37:29.761Z,14.20
2022-11-30T15:40:35.235Z,14.22
2022-11-30T15:43:40.320Z,14.24
2022-11-30T15:47:09.209Z,14.16
2022-11-30T15:50:32.575Z,14.04
2022-11-30T15:53:53.248Z,13.97
2022-11-30T15:56:58.923Z,13.95
2022-11-30T16:00:24.151Z,14.01
2022-11-30T16:03:26.143Z,13.93
2022-11-30T16:07:00.580Z,14.04
2022-11-30T16:10:35.454Z,13.90
2022-11-30T16:13:40.485Z,13.92
2022-11-30T16:16:43.654Z,13.90
2022-11-30T16:19:48.356Z,14.00
2022-11-30T16:22:51.106Z,13.92
2022-11-30T16:25:53.983Z,13.95
2022-11-30T16:28:58.430Z,13.97
2022-11-30T16:32:00.686Z,13.95
2022-11-30T16:35:03.303Z,13.96
2022-11-30T16:38:06.584Z,13.98
2022-11-30T16:41:23.729Z,13.75
2022-11-30T16:44:26.264Z,13.72
2022-11-30T16:47:28.208Z,13.74
2022-11-30T16:50:34.416Z,13.81
2022-11-30T16:53:41.479Z,13.81
2022-11-30T16:56:46.362Z,13.93
2022-11-30T16:59:48.502Z,13.84
2022-11-30T17:06:35.423Z,13.81
2022-11-30T17:09:41.311Z,13.71
2022-11-30T17:12:55.383Z,13.61
2022-11-30T17:16:06.647Z,13.87
2022-11-30T17:19:10.515Z,13.85
2022-11-30T17:22:23.288Z,13.75
2022-11-30T17:25:27.460Z,13.76
2022-11-30T17:28:31.729Z,13.69
2022-11-30T17:31:33.890Z,13.82
2022-11-30T17:34:36.691Z,13.84
2022-11-30T17:37:39.978Z,13.75
2022-11-30T17:40:44.347Z,13.71
2022-11-30T17:43:53.997Z,13.69
2022-11-30T17:46:56.430Z,13.77
2022-11-30T17:49:59.937Z,13.77
2022-11-30T17:53:02.275Z,13.65
2022-11-30T17:56:18.473Z,13.67
2022-11-30T17:59:20.371Z,13.55
2022-11-30T18:02:27.007Z,13.32
2022-11-30T18:05:32.392Z,13.34
2022-11-30T18:08:35.332Z,13.37
2022-11-30T18:11:37.402Z,13.34
2022-11-30T18:14:40.102Z,13.26
2022-11-30T18:17:42.911Z,13.19
2022-11-30T18:20:44.903Z,13.19
2022-11-30T18:23:50.046Z,13.20
2022-11-30T18:26:52.914Z,13.17
2022-11-30T18:29:55.157Z,13.38
2022-11-30T18:32:58.074Z,13.41
2022-11-30T18:36:01.482Z,13.13
2022-11-30T18:39:03.863Z,13.18
2022-11-30T18:42:06.375Z,12.94
2022-11-30T18:45:08.842Z,13.05
2022-11-30T18:48:12.524Z,13.18
2022-11-30T18:51:20.658Z,13.00
2022-11-30T18:54:25.474Z,13.10
2022-11-30T18:57:28.650Z,13.01
2022-11-30T19:00:33.929Z,13.09
2022-11-30T19:03:37.853Z,13.12
2022-11-30T19:06:43.920Z,13.06
2022-11-30T19:09:50.915Z,12.95
2022-11-30T19:13:18.735Z,13.14
2022-11-30T19:16:21.287Z,13.21
2022-11-30T19:19:23.996Z,13.09
2022-11-30T19:22:30.290Z,13.14
2022-11-30T19:25:33.089Z,13.18
2022-11-30T19:28:37.386Z,13.05
2022-11-30T19:31:40.061Z,12.69
2022-11-30T19:34:43.005Z,13.13
2022-11-30T19:37:46.037Z,13.08
2022-11-30T19:40:48.239Z,13.03
2022-11-30T19:44:03.144Z,13.18
2022-11-30T19:47:07.967Z,13.09
2022-11-30T19:50:10.180Z,13.12
2022-11-30T19:53:16.263Z,13.08
2022-11-30T19:56:19.307Z,13.01
2022-11-30T19:59:22.385Z,13.03
2022-11-30T20:02:25.403Z,13.08
2022-11-30T20:05:30.703Z,12.93
2022-11-30T20:08:32.906Z,12.99
2022-11-30T20:11:40.630Z,12.98
2022-11-30T20:14:42.724Z,12.99
2022-11-30T20:17:45.890Z,12.92
2022-11-30T20:20:49.885Z,12.91
2022-11-30T20:23:57.994Z,13.09
2022-11-30T20:27:01.281Z,13.07
2022-11-30T20:30:05.535Z,13.00
2022-11-30T20:39:46.248Z,13.03
2022-11-30T20:42:48.752Z,12.97
2022-11-30T20:45:52.532Z,12.83
2022-11-30T20:48:57.549Z,12.88
2022-11-30T20:55:40.971Z,12.88
2022-11-30T20:58:52.105Z,12.92
2022-11-30T21:02:04.296Z,12.96
2022-11-30T21:05:14.728Z,12.87
2022-11-30T21:08:20.194Z,12.74
2022-11-30T21:11:27.713Z,12.86
2022-11-30T21:16:16.362Z,12.67
2022-11-30T21:18:56.500Z,12.83
2022-11-30T21:21:59.877Z,12.83
2022-11-30T21:25:05.013Z,12.90
2022-11-30T21:28:08.362Z,12.84
2022-11-30T21:31:12.700Z,12.83
2022-11-30T21:34:17.943Z,12.86
2022-11-30T21:37:22.537Z,12.87
2022-11-30T21:40:24.544Z,12.93
2022-11-30T21:43:29.779Z,12.88
2022-11-30T21:46:33.299Z,12.90
2022-11-30T21:49:38.989Z,12.99
2022-11-30T21:52:42.264Z,12.81
2022-11-30T21:55:44.353Z,12.91
2022-11-30T21:58:49.942Z,12.97
2022-11-30T22:01:52.010Z,13.00
2022-11-30T22:04:54.026Z,12.87
2022-11-30T22:07:56.569Z,12.78
2022-11-30T22:11:03.641Z,12.94
2022-11-30T22:14:08.022Z,12.93
2022-11-30T22:17:12.830Z,12.91
2022-11-30T22:20:18.682Z,12.90
2022-11-30T22:23:30.491Z,12.80
2022-11-30T22:26:38.144Z,12.81
2022-11-30T22:29:40.245Z,12.75
2022-11-30T22:32:49.978Z,12.58
2022-11-30T22:35:54.459Z,12.55
2022-11-30T22:39:00.318Z,12.67
2022-11-30T22:42:02.364Z,12.53
2022-11-30T22:45:07.271Z,12.55
2022-11-30T22:48:10.842Z,12.57
2022-11-30T22:51:15.604Z,12.54
2022-11-30T22:54:21.066Z,12.61
2022-11-30T22:57:23.604Z,12.48
2022-11-30T23:00:25.965Z,12.53
2022-11-30T23:03:28.374Z,12.52
2022-11-30T23:06:30.872Z,12.46
2022-11-30T23:09:32.953Z,12.63
2022-11-30T23:12:58.632Z,12.60
2022-11-30T23:16:00.408Z,12.48
2022-11-30T23:19:06.758Z,12.59
2022-11-30T23:22:08.916Z,12.52
2022-11-30T23:25:11.085Z,12.52
2022-11-30T23:28:14.046Z,12.50
2022-11-30T23:31:33.688Z,12.48
2022-11-30T23:34:38.889Z,12.07
2022-11-30T23:37:40.911Z,12.36
2022-11-30T23:40:42.999Z,12.49
2022-11-30T23:43:47.612Z,12.42
2022-11-30T23:46:53.706Z,12.45
2022-11-30T23:49:56.153Z,12.54
2022-11-30T23:52:58.271Z,12.44
2022-11-30T23:56:09.350Z,12.36
2022-11-30T23:59:11.527Z,12.38
